Time;durP1;ratioP1;P1;durP2;ratioP2;P2;SDS_P1;SDS_P2;PMS_P1;PMS_P2;Temp;Humidity;BMP_temperature;BMP_pressure;BME280_temperature;BME280_humidity;BME280_pressure;Samples;Min_cycle;Max_cycle;Signal;HPM_P1;HPM_P2
2022/04/29 00:00:49;;;;;;;9.40;3.00;;;7.10;99.90;;;;;;6136624;23;20013;-91
2022/04/29 00:03:15;;;;;;;8.60;3.35;;;7.10;99.90;;;;;;6136787;23;20024;-92
2022/04/29 00:05:43;;;;;;;12.35;3.53;;;7.10;99.90;;;;;;6161168;23;20076;-93
2022/04/29 00:08:11;;;;;;;8.13;3.15;;;7.10;99.90;;;;;;6161557;23;20380;-92
2022/04/29 00:10:37;;;;;;;9.95;3.22;;;7.10;99.90;;;;;;6161256;23;20017;-92
2022/04/29 00:13:05;;;;;;;8.27;3.47;;;7.10;99.90;;;;;;6161276;23;20020;-90
2022/04/29 00:15:31;;;;;;;10.27;4.20;;;7.10;99.90;;;;;;6160984;23;20017;-91
2022/04/29 00:17:57;;;;;;;7.82;2.97;;;7.00;99.90;;;;;;6161056;23;20068;-90
2022/04/29 00:20:23;;;;;;;5.77;2.83;;;7.00;99.90;;;;;;6161092;23;20021;-90
2022/04/29 00:22:48;;;;;;;5.47;3.00;;;6.90;99.90;;;;;;6136565;23;20024;-91
2022/04/29 00:25:14;;;;;;;8.13;3.10;;;6.80;99.90;;;;;;6160961;23;20454;-91
2022/04/29 00:27:41;;;;;;;8.73;2.95;;;6.70;99.90;;;;;;6136741;23;20447;-91
2022/04/29 00:30:12;;;;;;;12.55;3.35;;;6.60;99.90;;;;;;6136422;23;20104;-93
2022/04/29 00:32:39;;;;;;;8.55;3.50;;;6.60;99.90;;;;;;6136560;23;20067;-92
2022/04/29 00:35:07;;;;;;;7.82;3.00;;;6.60;99.90;;;;;;6136475;23;20021;-92
2022/04/29 00:37:44;;;;;;;8.20;3.10;;;6.50;99.90;;;;;;6136474;23;20020;-91
2022/04/29 00:40:14;;;;;;;11.02;3.25;;;6.50;99.90;;;;;;6136231;23;20052;-92
2022/04/29 00:42:40;;;;;;;8.25;3.38;;;6.40;99.90;;;;;;6136400;23;20017;-93
2022/04/29 00:45:09;;;;;;;11.27;3.83;;;6.40;99.90;;;;;;6160840;23;20451;-92
2022/04/29 00:47:38;;;;;;;8.73;3.88;;;6.40;99.90;;;;;;6160770;23;20443;-92
2022/04/29 00:50:04;;;;;;;7.30;3.60;;;6.40;99.90;;;;;;6136322;23;20021;-91
2022/04/29 00:52:32;;;;;;;11.95;3.67;;;6.40;99.90;;;;;;6136524;23;20019;-92
2022/04/29 00:55:04;;;;;;;10.07;3.70;;;6.40;99.90;;;;;;6136041;23;20315;-92
2022/04/29 00:57:56;;;;;;;7.85;3.60;;;6.40;99.90;;;;;;6160791;23;20017;-91
2022/04/29 01:00:22;;;;;;;9.93;4.00;;;6.40;99.90;;;;;;6160908;23;20025;-90
2022/04/29 01:02:51;;;;;;;11.68;4.18;;;6.30;99.90;;;;;;6136233;23;20446;-92
2022/04/29 01:05:22;;;;;;;9.38;4.15;;;6.40;99.90;;;;;;6135794;23;20448;-93
2022/04/29 01:07:49;;;;;;;8.88;4.22;;;6.40;99.90;;;;;;6136374;23;20044;-91
2022/04/29 01:10:17;;;;;;;7.43;3.33;;;6.40;99.90;;;;;;6136053;23;20013;-91
2022/04/29 01:12:45;;;;;;;10.35;3.53;;;6.30;99.90;;;;;;6136322;23;20017;-91
2022/04/29 01:15:17;;;;;;;9.05;4.05;;;6.30;99.90;;;;;;6136239;23;20024;-90
2022/04/29 01:17:45;;;;;;;7.78;4.65;;;6.30;99.90;;;;;;6135922;23;20057;-92
2022/04/29 01:20:17;;;;;;;9.38;4.93;;;6.30;99.90;;;;;;6136189;23;20052;-90
2022/04/29 01:22:43;;;;;;;8.75;5.43;;;6.30;99.90;;;;;;6135847;23;20017;-92
2022/04/29 01:25:10;;;;;;;9.65;5.40;;;6.40;99.90;;;;;;6136125;23;20017;-91
2022/04/29 01:27:35;;;;;;;9.32;5.80;;;6.40;99.90;;;;;;6135800;23;20400;-92
2022/04/29 01:30:03;;;;;;;12.03;5.80;;;6.40;99.90;;;;;;6136319;23;20021;-92
2022/04/29 01:32:32;;;;;;;12.82;5.43;;;6.40;99.90;;;;;;6135661;23;20055;-92
2022/04/29 01:34:58;;;;;;;12.27;6.40;;;6.40;99.90;;;;;;6136029;23;20017;-91
2022/04/29 01:37:24;;;;;;;12.00;5.72;;;6.50;99.90;;;;;;6135662;23;20070;-91
2022/04/29 01:39:50;;;;;;;10.90;6.10;;;6.50;99.90;;;;;;6135813;23;20080;-94
2022/04/29 01:42:17;;;;;;;10.13;6.20;;;6.50;99.90;;;;;;6135740;23;20100;-92
2022/04/29 01:44:43;;;;;;;11.20;5.38;;;6.50;99.90;;;;;;6135721;23;20462;-90
2022/04/29 01:47:09;;;;;;;9.48;5.05;;;6.50;99.90;;;;;;6135687;23;20019;-89
2022/04/29 01:49:34;;;;;;;6.33;4.40;;;6.50;99.90;;;;;;6135784;23;20052;-93
2022/04/29 01:52:00;;;;;;;9.17;4.13;;;6.50;99.90;;;;;;6160147;23;20024;-91
2022/04/29 01:54:26;;;;;;;8.57;4.83;;;6.30;99.90;;;;;;6135240;23;20041;-89
2022/04/29 01:56:53;;;;;;;9.10;4.43;;;6.20;99.90;;;;;;6160133;23;20096;-89
2022/04/29 01:59:19;;;;;;;9.60;4.90;;;6.10;99.90;;;;;;6135421;23;20017;-90
2022/04/29 02:01:46;;;;;;;8.60;5.13;;;6.00;99.90;;;;;;6135286;23;20013;-90
2022/04/29 02:04:13;;;;;;;9.85;5.43;;;6.00;99.90;;;;;;6135197;23;20027;-90
2022/04/29 02:06:39;;;;;;;8.73;5.18;;;6.00;99.90;;;;;;6184639;23;20806;-91
2022/04/29 02:09:06;;;;;;;11.37;6.43;;;6.00;99.90;;;;;;6135611;23;20401;-91
2022/04/29 02:11:32;;;;;;;12.40;5.70;;;5.90;99.90;;;;;;6160053;23;20070;-91
2022/04/29 02:13:58;;;;;;;10.73;5.40;;;6.00;99.90;;;;;;6135570;23;20021;-91
2022/04/29 02:16:23;;;;;;;11.57;5.50;;;6.00;99.90;;;;;;6135683;23;20013;-92
2022/04/29 02:18:49;;;;;;;8.13;5.40;;;6.00;99.90;;;;;;6160141;23;20020;-92
2022/04/29 02:21:15;;;;;;;10.73;5.57;;;5.90;99.90;;;;;;6135514;23;20406;-90
2022/04/29 02:23:41;;;;;;;9.07;5.67;;;5.80;99.90;;;;;;6135499;23;20446;-90
2022/04/29 02:26:06;;;;;;;12.50;5.73;;;5.80;99.90;;;;;;6135401;23;20013;-91
2022/04/29 02:28:34;;;;;;;10.50;5.77;;;5.80;99.90;;;;;;6135366;23;20024;-92
2022/04/29 02:31:00;;;;;;;9.82;5.65;;;5.80;99.90;;;;;;6135279;23;20108;-90
2022/04/29 02:33:29;;;;;;;9.05;6.03;;;5.80;99.90;;;;;;6135356;23;20096;-90
2022/04/29 02:35:55;;;;;;;10.80;5.57;;;5.90;99.90;;;;;;6159132;23;20020;-90
2022/04/29 02:38:21;;;;;;;9.30;6.13;;;5.90;99.90;;;;;;6134933;23;20398;-89
2022/04/29 02:40:50;;;;;;;9.20;6.07;;;5.90;99.90;;;;;;6134989;23;20345;-90
2022/04/29 02:43:18;;;;;;;10.95;5.82;;;6.00;99.90;;;;;;6159409;23;20013;-90
2022/04/29 02:45:46;;;;;;;11.45;6.05;;;6.00;99.90;;;;;;6134890;23;20021;-89
2022/04/29 02:48:13;;;;;;;10.85;6.38;;;6.00;99.90;;;;;;6159830;23;20079;-90
2022/04/29 02:50:39;;;;;;;;;;;6.10;99.90;;;;;;6135690;23;20096;-90
2022/04/29 02:53:04;;;;;;;11.68;6.28;;;6.10;99.90;;;;;;6135122;23;19955;-90
2022/04/29 02:55:30;;;;;;;11.37;5.87;;;6.10;99.90;;;;;;6135097;23;20020;-89
2022/04/29 02:57:56;;;;;;;13.13;6.00;;;6.10;99.90;;;;;;6159509;23;20020;-90
2022/04/29 03:00:21;;;;;;;10.13;5.63;;;6.20;99.90;;;;;;6135140;23;20053;-89
2022/04/29 03:02:47;;;;;;;10.23;5.60;;;6.20;99.90;;;;;;6134468;23;20048;-90
2022/04/29 03:05:13;;;;;;;9.00;5.77;;;6.20;99.90;;;;;;6135023;23;20017;-91
2022/04/29 03:07:39;;;;;;;9.37;6.20;;;6.30;99.90;;;;;;6159702;23;20017;-91
2022/04/29 03:10:05;;;;;;;14.30;6.97;;;6.30;99.90;;;;;;6135009;23;20068;-90
2022/04/29 03:12:30;;;;;;;11.70;6.30;;;6.30;99.90;;;;;;6135287;23;20052;-90
2022/04/29 03:15:15;;;;;;;11.87;7.53;;;6.30;99.90;;;;;;6134863;23;20447;-91
2022/04/29 03:20:26;;;;;;;9.48;5.72;;;6.30;99.90;;;;;;6161501;23;20021;-90
2022/04/29 03:22:52;;;;;;;7.73;5.93;;;6.30;99.90;;;;;;6136892;23;20496;-91
2022/04/29 03:25:18;;;;;;;9.40;5.32;;;6.30;99.90;;;;;;6161785;23;20017;-91
2022/04/29 03:27:44;;;;;;;10.67;5.97;;;6.30;99.90;;;;;;6137026;23;20448;-90
2022/04/29 03:30:10;;;;;;;9.93;6.10;;;6.40;99.90;;;;;;6161493;23;20049;-90
2022/04/29 03:32:36;;;;;;;10.70;6.10;;;6.40;99.90;;;;;;6136655;23;20442;-90
2022/04/29 03:35:01;;;;;;;11.50;6.60;;;6.40;99.90;;;;;;6136904;23;20013;-90
2022/04/29 03:37:27;;;;;;;11.63;6.37;;;6.40;99.90;;;;;;6136839;23;20017;-92
2022/04/29 03:39:53;;;;;;;13.43;6.77;;;6.40;99.90;;;;;;6136967;23;20014;-92
2022/04/29 03:42:20;;;;;;;9.60;6.17;;;6.40;99.90;;;;;;6136919;23;20052;-91
2022/04/29 03:44:46;;;;;;;10.52;5.97;;;6.30;99.90;;;;;;6136778;23;20056;-91
2022/04/29 03:47:12;;;;;;;10.87;6.07;;;6.30;99.90;;;;;;6136913;23;20017;-91
2022/04/29 03:49:38;;;;;;;10.53;6.83;;;6.40;99.90;;;;;;6136815;23;20506;-91
2022/04/29 03:52:05;;;;;;;12.60;7.23;;;6.40;99.90;;;;;;6136831;23;20017;-91
2022/04/29 03:54:31;;;;;;;9.98;5.95;;;6.40;99.90;;;;;;6136864;23;20431;-91
2022/04/29 03:56:57;;;;;;;10.85;6.55;;;6.40;99.90;;;;;;6137139;23;20343;-92
2022/04/29 03:59:23;;;;;;;12.38;7.13;;;6.40;99.90;;;;;;6136806;23;20029;-91
2022/04/29 04:01:49;;;;;;;11.27;6.90;;;6.40;99.90;;;;;;6136919;23;20016;-90
2022/04/29 04:04:14;;;;;;;13.33;6.30;;;6.40;99.90;;;;;;6136295;23;20020;-89
2022/04/29 04:06:49;;;;;;;10.40;6.73;;;6.50;99.90;;;;;;6161702;23;20021;-90
2022/04/29 04:09:16;;;;;;;14.27;7.10;;;6.40;99.90;;;;;;6136638;23;20071;-89
2022/04/29 04:11:42;;;;;;;10.02;6.25;;;6.40;99.90;;;;;;6136906;23;20017;-89
2022/04/29 04:14:08;;;;;;;13.70;6.30;;;6.40;99.90;;;;;;6136604;23;20045;-89
2022/04/29 04:16:35;;;;;;;13.73;6.63;;;6.40;99.90;;;;;;6137073;23;20014;-91
2022/04/29 04:19:01;;;;;;;13.02;6.35;;;6.40;99.90;;;;;;6136742;23;20064;-91
2022/04/29 04:21:27;;;;;;;12.57;6.50;;;6.40;99.90;;;;;;6136358;23;20099;-91
2022/04/29 04:23:53;;;;;;;9.25;6.93;;;6.40;99.90;;;;;;6136583;23;20052;-91
2022/04/29 04:26:19;;;;;;;11.97;6.03;;;6.40;99.90;;;;;;6136526;23;20013;-90
2022/04/29 04:28:45;;;;;;;12.73;6.45;;;6.30;99.90;;;;;;6136305;23;20017;-91
2022/04/29 04:31:11;;;;;;;12.40;6.87;;;6.40;99.90;;;;;;6136618;23;20048;-92
2022/04/29 04:33:36;;;;;;;13.27;6.70;;;6.40;99.90;;;;;;6136258;23;20024;-91
2022/04/29 04:36:04;;;;;;;11.80;6.67;;;6.50;99.90;;;;;;6136526;23;20339;-91
2022/04/29 04:38:32;;;;;;;13.15;6.32;;;6.50;99.90;;;;;;6136504;23;20021;-91
2022/04/29 04:40:59;;;;;;;12.50;7.18;;;6.50;99.90;;;;;;6136195;23;20013;-91
2022/04/29 04:43:27;;;;;;;12.67;6.77;;;6.50;99.90;;;;;;6136117;23;20021;-91
2022/04/29 04:45:53;;;;;;;9.45;6.60;;;6.60;99.90;;;;;;6160665;23;20040;-91
2022/04/29 04:48:19;;;;;;;16.37;6.40;;;6.60;99.90;;;;;;6136332;23;20378;-91
2022/04/29 04:50:45;;;;;;;9.97;6.53;;;6.60;99.90;;;;;;6160672;23;20097;-91
2022/04/29 04:53:10;;;;;;;11.27;6.67;;;6.60;99.90;;;;;;6136180;23;20013;-90
2022/04/29 04:55:37;;;;;;;12.00;7.17;;;6.60;99.90;;;;;;6136103;23;20009;-90
2022/04/29 04:58:02;;;;;;;11.73;6.85;;;6.70;99.90;;;;;;6136216;23;20021;-90
2022/04/29 05:00:28;;;;;;;12.27;7.23;;;6.60;99.90;;;;;;6160627;23;20017;-91
2022/04/29 05:02:54;;;;;;;11.00;6.40;;;6.60;99.90;;;;;;6136285;23;20083;-91
2022/04/29 05:05:20;;;;;;;9.30;7.00;;;6.70;99.90;;;;;;6136122;23;20020;-91
2022/04/29 05:07:46;;;;;;;12.17;6.93;;;6.70;99.90;;;;;;6160339;23;20349;-91
2022/04/29 05:10:12;;;;;;;14.07;6.90;;;6.70;99.90;;;;;;6136198;23;20028;-91
2022/04/29 05:12:43;;;;;;;16.33;6.88;;;6.80;99.90;;;;;;6135929;23;20045;-90
2022/04/29 05:15:10;;;;;;;10.90;7.18;;;6.80;99.90;;;;;;6135921;23;20017;-90
2022/04/29 05:17:38;;;;;;;12.35;6.65;;;6.90;99.90;;;;;;6135663;23;20497;-91
2022/04/29 05:20:05;;;;;;;15.60;7.05;;;6.90;99.90;;;;;;6136154;23;20100;-91
2022/04/29 05:22:31;;;;;;;;;;;7.00;99.90;;;;;;6136302;23;20017;-92
2022/04/29 05:24:57;;;;;;;10.05;6.60;;;7.00;99.90;;;;;;6135208;23;19969;-91
2022/04/29 05:27:23;;;;;;;14.37;7.67;;;7.10;99.90;;;;;;6134978;23;20017;-91
2022/04/29 05:29:49;;;;;;;13.30;7.20;;;7.20;99.90;;;;;;6136120;23;20068;-91
2022/04/29 05:32:16;;;;;;;10.00;6.93;;;7.30;99.90;;;;;;6135638;23;20443;-90
2022/04/29 05:34:42;;;;;;;15.38;7.07;;;7.30;99.90;;;;;;6135858;23;20017;-92
2022/04/29 05:37:08;;;;;;;10.35;6.53;;;7.40;99.90;;;;;;6135654;23;20466;-92
2022/04/29 05:42:19;;;;;;;13.18;7.00;;;7.40;99.90;;;;;;6159998;23;20029;-91
2022/04/29 05:44:45;;;;;;;10.90;6.50;;;7.50;99.90;;;;;;6135498;23;20071;-90
2022/04/29 05:47:11;;;;;;;10.43;5.78;;;7.60;99.90;;;;;;6135824;23;20024;-90
2022/04/29 05:49:38;;;;;;;8.30;5.40;;;7.60;99.90;;;;;;6135692;23;20013;-91
2022/04/29 05:52:04;;;;;;;9.50;5.63;;;7.60;99.90;;;;;;6135506;23;20017;-91
2022/04/29 05:54:31;;;;;;;10.50;5.45;;;7.70;99.90;;;;;;6159831;23;20095;-91
2022/04/29 05:56:57;;;;;;;8.52;5.03;;;7.70;99.90;;;;;;6135406;23;20017;-91
2022/04/29 05:59:23;;;;;;;11.60;4.80;;;7.80;99.90;;;;;;6135575;23;20082;-92
2022/04/29 06:01:49;;;;;;;12.67;5.63;;;7.80;99.90;;;;;;6135579;23;20448;-91
2022/04/29 06:04:15;;;;;;;8.10;4.90;;;7.90;99.90;;;;;;6135166;23;20056;-91
2022/04/29 06:06:40;;;;;;;9.63;5.67;;;8.00;99.90;;;;;;6135601;23;20020;-89
2022/04/29 06:09:06;;;;;;;9.30;5.40;;;7.90;99.90;;;;;;6160304;23;20021;-89
2022/04/29 06:11:32;;;;;;;10.83;4.97;;;8.00;99.90;;;;;;6160333;23;20035;-90
2022/04/29 06:13:58;;;;;;;9.10;4.87;;;8.00;99.90;;;;;;6135489;23;20021;-89
2022/04/29 06:16:24;;;;;;;10.77;4.90;;;8.00;99.90;;;;;;6135333;23;20013;-88
2022/04/29 06:18:50;;;;;;;8.00;4.80;;;8.00;99.90;;;;;;6135255;23;20017;-90
2022/04/29 06:21:18;;;;;;;9.03;5.27;;;8.00;99.90;;;;;;6135570;23;20347;-89
2022/04/29 06:23:44;;;;;;;15.90;5.28;;;8.10;99.90;;;;;;6135349;23;20029;-90
2022/04/29 06:26:10;;;;;;;13.07;5.20;;;8.10;99.90;;;;;;6135186;23;20052;-91
2022/04/29 06:28:36;;;;;;;11.18;4.70;;;8.20;99.90;;;;;;6135624;23;20423;-93
2022/04/29 06:31:02;;;;;;;7.88;4.78;;;8.20;99.90;;;;;;6135401;23;20043;-89
2022/04/29 06:33:33;;;;;;;9.27;4.45;;;8.20;99.90;;;;;;6135441;23;20051;-90
2022/04/29 06:36:00;;;;;;;11.35;4.60;;;8.30;99.90;;;;;;6135523;23;20032;-90
2022/04/29 06:38:26;;;;;;;10.85;4.70;;;8.30;99.90;;;;;;6135827;23;20028;-89
2022/04/29 06:40:52;;;;;;;9.43;4.77;;;8.30;99.90;;;;;;6135445;23;20005;-90
2022/04/29 06:43:19;;;;;;;8.10;4.43;;;8.40;99.90;;;;;;6135533;23;20013;-90
2022/04/29 06:45:48;;;;;;;11.23;4.60;;;8.40;99.90;;;;;;6135266;23;20016;-90
2022/04/29 06:48:15;;;;;;;9.20;4.65;;;8.50;99.90;;;;;;6135403;23;20023;-91
2022/04/29 06:50:41;;;;;;;7.60;4.53;;;8.50;99.90;;;;;;6135412;23;20024;-90
2022/04/29 06:53:07;;;;;;;10.85;4.32;;;8.50;99.90;;;;;;6134985;23;20139;-92
2022/04/29 06:55:37;;;;;;;11.73;5.00;;;8.60;99.90;;;;;;6135380;23;20049;-91
2022/04/29 06:58:03;;;;;;;9.75;4.88;;;8.70;99.90;;;;;;6135119;23;20465;-90
2022/04/29 07:00:29;;;;;;;11.10;4.80;;;8.80;99.90;;;;;;6135125;23;20048;-89
2022/04/29 07:03:05;;;;;;;9.60;4.57;;;8.80;99.90;;;;;;6134851;23;20025;-90
2022/04/29 07:05:31;;;;;;;9.63;3.25;;;8.90;99.90;;;;;;6134978;23;20023;-90
2022/04/29 07:08:00;;;;;;;9.65;3.05;;;8.90;99.90;;;;;;6159567;23;20443;-90
2022/04/29 07:10:26;;;;;;;8.57;4.03;;;8.90;99.90;;;;;;6135166;23;20453;-92
2022/04/29 07:12:52;;;;;;;6.77;3.40;;;8.90;99.90;;;;;;6134845;23;20053;-89
2022/04/29 07:15:17;;;;;;;5.30;2.10;;;8.90;99.90;;;;;;6134835;23;20096;-90
2022/04/29 07:17:59;;;;;;;5.97;2.40;;;9.00;99.90;;;;;;6134756;23;20041;-87
2022/04/29 07:20:25;;;;;;;10.73;2.20;;;8.90;99.90;;;;;;6134434;23;20029;-87
2022/04/29 07:22:50;;;;;;;10.07;3.05;;;8.90;99.90;;;;;;6158803;23;20017;-87
2022/04/29 07:25:16;;;;;;;8.23;2.83;;;8.90;99.90;;;;;;6134436;23;20104;-87
2022/04/29 07:27:42;;;;;;;8.37;2.70;;;8.90;99.90;;;;;;6134263;23;20092;-87
2022/04/29 07:30:14;;;;;;;6.50;3.42;;;8.90;99.90;;;;;;6183740;23;20021;-87
2022/04/29 07:49:17;;;;;;;8.15;3.13;;;8.90;99.90;;;;;;6183460;23;20025;-88
2022/04/29 07:51:43;;;;;;;9.40;3.70;;;8.90;99.90;;;;;;6134378;23;20465;-88
2022/04/29 07:54:09;;;;;;;6.13;2.95;;;8.90;99.90;;;;;;6158976;23;20013;-90
2022/04/29 07:56:35;;;;;;;9.55;3.22;;;8.90;99.90;;;;;;6134375;23;20465;-88
2022/04/29 07:59:01;;;;;;;8.70;2.90;;;9.00;99.90;;;;;;6134544;23;20013;-88
2022/04/29 08:01:27;;;;;;;5.17;2.63;;;9.00;99.90;;;;;;6134208;23;20023;-88
2022/04/29 08:03:54;;;;;;;6.43;2.78;;;9.00;99.90;;;;;;6132273;23;20017;-89
2022/04/29 08:06:21;;;;;;;9.80;2.65;;;8.90;99.90;;;;;;6134722;23;20051;-89
2022/04/29 08:08:47;;;;;;;4.22;1.92;;;9.00;99.90;;;;;;6158466;23;20123;-89
2022/04/29 08:11:14;;;;;;;6.55;1.90;;;9.00;99.90;;;;;;6134556;23;20012;-90
2022/04/29 08:13:41;;;;;;;;;;;9.10;99.90;;;;;;6134738;23;20017;-91
2022/04/29 08:16:07;;;;;;;8.27;3.10;;;9.10;99.90;;;;;;6160285;23;19912;-90
2022/04/29 08:18:33;;;;;;;7.95;2.50;;;9.20;99.90;;;;;;6136179;23;20017;-90
2022/04/29 08:20:59;;;;;;;8.87;2.97;;;9.20;99.90;;;;;;6135893;23;20032;-93
2022/04/29 08:23:24;;;;;;;9.87;3.07;;;9.20;99.90;;;;;;6136197;23;20056;-89
2022/04/29 08:25:50;;;;;;;9.67;3.30;;;9.20;99.90;;;;;;6161059;23;20472;-90
2022/04/29 08:28:16;;;;;;;6.63;2.50;;;9.30;99.90;;;;;;6136005;23;20025;-88
2022/04/29 08:30:42;;;;;;;5.40;2.42;;;9.30;99.90;;;;;;6160856;23;20052;-90
2022/04/29 08:33:12;;;;;;;8.67;3.80;;;9.30;99.90;;;;;;6135154;23;20020;-90
2022/04/29 08:35:39;;;;;;;7.35;3.40;;;9.30;99.90;;;;;;6136099;23;20024;-89
2022/04/29 08:38:10;;;;;;;6.85;2.95;;;9.30;99.90;;;;;;6160650;23;20055;-92
2022/04/29 08:40:43;;;;;;;7.20;2.72;;;9.30;99.90;;;;;;6136315;23;20017;-91
2022/04/29 08:43:14;;;;;;;5.57;2.63;;;9.40;99.90;;;;;;6136134;23;20017;-91
2022/04/29 08:45:40;;;;;;;7.35;2.40;;;9.40;99.90;;;;;;6135806;23;20092;-91
2022/04/29 08:48:07;;;;;;;6.50;2.63;;;9.40;99.90;;;;;;6135979;23;20012;-90
2022/04/29 08:50:33;;;;;;;6.65;2.70;;;9.50;99.90;;;;;;6135906;23;20025;-91
2022/04/29 08:52:59;;;;;;;9.13;2.92;;;9.40;99.90;;;;;;6185578;23;20047;-92
2022/04/29 09:01:05;;;;;;;7.82;2.80;;;9.60;99.90;;;;;;6160724;23;20095;-90
2022/04/29 09:03:31;;;;;;;6.55;2.42;;;9.60;99.90;;;;;;6160257;23;20017;-90
2022/04/29 09:05:57;;;;;;;7.85;2.97;;;9.70;99.90;;;;;;6135794;23;20072;-89
2022/04/29 09:08:23;;;;;;;9.37;2.40;;;9.70;99.90;;;;;;6135399;23;20048;-90
2022/04/29 09:10:59;;;;;;;7.40;2.35;;;9.70;99.90;;;;;;6135800;23;20108;-90
2022/04/29 09:13:28;;;;;;;7.18;2.30;;;9.80;99.90;;;;;;6135886;23;20138;-90
2022/04/29 09:15:59;;;;;;;7.20;2.40;;;9.80;99.90;;;;;;6135677;23;20013;-92
2022/04/29 09:18:55;;;;;;;6.38;2.80;;;9.80;99.90;;;;;;6135981;23;20072;-89
2022/04/29 09:21:30;;;;;;;7.70;2.67;;;9.80;99.90;;;;;;6123514;23;20095;-90
2022/04/29 09:24:06;;;;;;;8.23;3.42;;;9.90;99.90;;;;;;6135740;23;20108;-90
2022/04/29 09:26:41;;;;;;;6.85;2.67;;;9.90;99.90;;;;;;6135642;23;20432;-90
2022/04/29 09:29:21;;;;;;;6.47;2.70;;;9.90;99.90;;;;;;6135609;23;20013;-91
2022/04/29 09:31:53;;;;;;;10.25;3.22;;;9.90;99.90;;;;;;6135504;23;20073;-92
2022/04/29 09:34:19;;;;;;;16.27;4.50;;;9.90;99.90;;;;;;6159968;23;20021;-89
2022/04/29 09:36:45;;;;;;;9.15;3.20;;;9.80;99.90;;;;;;6160381;23;20020;-88
2022/04/29 09:42:00;;;;;;;7.50;3.45;;;9.80;99.90;;;;;;6159762;23;20105;-90
2022/04/29 09:44:31;;;;;;;8.57;2.90;;;9.80;99.90;;;;;;6159679;23;20048;-89
2022/04/29 09:47:11;;;;;;;9.07;3.70;;;9.80;99.90;;;;;;6135347;23;20048;-89
2022/04/29 09:49:38;;;;;;;7.25;3.47;;;9.80;99.90;;;;;;6135141;23;20028;-91
2022/04/29 09:52:05;;;;;;;7.75;3.28;;;9.80;99.90;;;;;;6135437;23;20474;-88
2022/04/29 09:54:37;;;;;;;6.80;3.13;;;9.80;99.90;;;;;;6135340;23;20016;-89
2022/04/29 09:57:24;;;;;;;7.78;3.10;;;9.80;99.90;;;;;;6135276;23;20017;-90
2022/04/29 09:59:59;;;;;;;6.63;3.50;;;9.80;99.90;;;;;;6135218;23;20020;-90
2022/04/29 10:02:29;;;;;;;6.93;3.40;;;9.80;99.90;;;;;;6135281;23;20052;-90
2022/04/29 10:04:55;;;;;;;6.53;3.75;;;9.90;99.90;;;;;;6135210;23;20021;-90
2022/04/29 10:07:23;;;;;;;8.85;3.40;;;9.90;99.90;;;;;;6135715;23;20020;-89
2022/04/29 10:09:54;;;;;;;12.68;3.97;;;9.90;99.90;;;;;;6134528;23;20019;-90
2022/04/29 10:12:22;;;;;;;8.32;4.70;;;9.80;99.90;;;;;;6133625;23;20017;-91
2022/04/29 10:14:57;;;;;;;9.13;4.50;;;9.80;99.90;;;;;;6134854;23;20017;-91
2022/04/29 10:23:07;;;;;;;8.20;3.67;;;9.80;99.90;;;;;;6159356;23;20021;-93
2022/04/29 10:25:34;;;;;;;8.85;4.28;;;9.80;99.90;;;;;;6134950;23;20086;-88
2022/04/29 10:28:01;;;;;;;9.18;4.40;;;9.90;99.90;;;;;;6134757;23;20020;-90
2022/04/29 10:30:32;;;;;;;12.23;4.28;;;9.70;99.90;;;;;;6134906;23;20017;-91
2022/04/29 10:33:00;;;;;;;10.38;4.30;;;9.70;99.90;;;;;;6134932;23;20013;-90
2022/04/29 10:35:58;;;;;;;7.72;3.20;;;9.70;99.90;;;;;;6135055;23;20017;-89
2022/04/29 10:38:25;;;;;;;6.72;2.90;;;9.70;99.90;;;;;;6159409;23;20462;-90
2022/04/29 10:41:17;;;;;;;6.07;3.42;;;9.70;99.90;;;;;;6134948;23;20019;-91
2022/04/29 10:43:47;;;;;;;7.75;4.30;;;9.70;99.90;;;;;;6132256;23;20021;-89
2022/04/29 10:46:27;;;;;;;9.15;3.65;;;9.70;99.90;;;;;;6134008;23;20075;-88
2022/04/29 10:48:53;;;;;;;10.57;4.40;;;9.70;99.90;;;;;;6132752;23;20017;-90
2022/04/29 10:51:25;;;;;;;;;;;9.70;99.90;;;;;;6133789;23;20027;-90
2022/04/29 10:53:52;;;;;;;10.73;3.47;;;9.80;99.90;;;;;;6134497;23;19916;-93
2022/04/29 10:56:30;;;;;;;8.10;4.00;;;9.80;99.90;;;;;;6134866;23;20017;-90
2022/04/29 10:59:15;;;;;;;7.70;3.20;;;9.80;99.90;;;;;;6134669;23;20530;-92
2022/04/29 11:02:06;;;;;;;7.40;3.80;;;9.90;99.90;;;;;;6135355;23;20025;-93
2022/04/29 11:04:32;;;;;;;5.55;2.63;;;9.90;99.90;;;;;;6135027;23;20017;-91
2022/04/29 11:06:58;;;;;;;4.90;2.70;;;9.90;99.90;;;;;;6134950;23;20457;-91
2022/04/29 11:09:27;;;;;;;6.40;2.10;;;9.90;99.90;;;;;;6159223;23;20132;-90
2022/04/29 11:11:54;;;;;;;4.82;2.47;;;9.90;99.90;;;;;;6159526;23;20083;-94
2022/04/29 11:14:20;;;;;;;6.95;2.67;;;9.90;99.90;;;;;;6159589;23;20021;-90
2022/04/29 11:16:57;;;;;;;9.20;2.10;;;9.90;99.90;;;;;;6135189;23;20025;-89
2022/04/29 11:19:28;;;;;;;6.18;2.63;;;10.00;99.90;;;;;;6134425;23;20013;-89
2022/04/29 11:24:46;;;;;;;7.07;2.30;;;10.00;99.90;;;;;;6159720;23;20031;-90
2022/04/29 11:27:12;;;;;;;5.85;2.70;;;10.00;99.90;;;;;;6159507;23;20013;-92
2022/04/29 11:29:46;;;;;;;9.75;2.60;;;10.10;99.90;;;;;;6134524;23;20021;-90
2022/04/29 11:32:13;;;;;;;6.65;2.78;;;10.10;99.90;;;;;;6134929;23;20018;-92
2022/04/29 11:34:52;;;;;;;;;;;10.10;99.90;;;;;;6135149;23;20097;-90
2022/04/29 11:37:25;;;;;;;5.07;2.50;;;10.10;99.90;;;;;;6159198;23;19916;-92
2022/04/29 11:39:54;;;;;;;7.53;2.80;;;10.00;99.90;;;;;;6136141;23;20107;-91
2022/04/29 11:42:20;;;;;;;6.93;2.88;;;10.10;99.90;;;;;;6136805;23;20013;-92
2022/04/29 11:44:49;;;;;;;9.73;3.13;;;10.10;99.90;;;;;;6136270;23;20079;-89
2022/04/29 11:47:16;;;;;;;7.05;3.00;;;10.10;99.90;;;;;;6161186;23;20020;-89
2022/04/29 11:49:42;;;;;;;;;;;10.10;99.90;;;;;;6137069;23;20024;-89
2022/04/29 11:52:25;;;;;;;6.55;2.80;;;10.10;99.90;;;;;;6136799;23;19943;-89
2022/04/29 11:54:59;;;;;;;7.65;2.38;;;10.20;99.90;;;;;;6136599;23;20021;-89
2022/04/29 11:57:27;;;;;;;5.72;2.28;;;10.20;99.90;;;;;;6136372;23;20009;-91
2022/04/29 11:59:53;;;;;;;5.75;2.03;;;10.20;99.90;;;;;;6136962;23;20040;-90
2022/04/29 12:02:21;;;;;;;7.47;2.25;;;10.20;99.90;;;;;;6136097;23;20021;-90
2022/04/29 12:05:05;;;;;;;6.63;2.20;;;10.20;99.90;;;;;;6136167;23;20017;-93
2022/04/29 12:07:39;;;;;;;7.60;2.92;;;10.20;99.90;;;;;;6136065;23;20025;-94
2022/04/29 12:10:18;;;;;;;6.22;2.70;;;10.20;99.90;;;;;;6136236;23;20343;-91
2022/04/29 12:12:47;;;;;;;9.80;3.70;;;10.30;99.90;;;;;;6136334;23;20028;-91
2022/04/29 12:15:32;;;;;;;8.43;2.80;;;10.40;99.90;;;;;;6162368;23;20053;-93
2022/04/29 12:18:07;;;;;;;6.75;2.85;;;10.50;99.90;;;;;;6136384;23;20017;-94
2022/04/29 12:21:18;;;;;;;8.82;2.85;;;10.50;99.90;;;;;;6138242;23;20017;-93
2022/04/29 12:24:16;;;;;;;5.28;2.60;;;10.50;99.90;;;;;;6184289;23;20040;-92
2022/04/29 13:07:59;;;;;;;9.15;3.03;;;10.50;99.90;;;;;;6221110;23;20024;-92
2022/04/29 13:10:25;;;;;;;7.03;2.53;;;10.60;99.90;;;;;;6169047;23;20024;-89
2022/04/29 13:12:51;;;;;;;6.60;2.60;;;10.60;99.90;;;;;;6194744;23;20063;-93
2022/04/29 13:15:17;;;;;;;8.30;2.70;;;10.70;99.90;;;;;;6170418;23;20016;-88
2022/04/29 13:17:43;;;;;;;6.50;2.40;;;10.70;99.90;;;;;;6169091;23;20158;-88
2022/04/29 13:20:09;;;;;;;5.93;2.30;;;10.80;99.90;;;;;;6167118;23;20477;-90
2022/04/29 13:22:37;;;;;;;6.88;3.03;;;10.80;99.90;;;;;;6165957;23;20255;-91
2022/04/29 13:25:06;;;;;;;5.70;2.58;;;10.90;99.90;;;;;;6190660;23;20119;-93
2022/04/29 13:27:32;;;;;;;5.97;2.70;;;10.90;99.90;;;;;;6167519;23;20016;-93
2022/04/29 13:29:58;;;;;;;8.38;3.08;;;11.00;99.90;;;;;;6170442;23;20023;-92
2022/04/29 13:32:24;;;;;;;5.60;2.80;;;10.90;99.90;;;;;;6167637;23;20051;-94
2022/04/29 13:34:53;;;;;;;17.07;3.47;;;10.90;99.90;;;;;;6167384;23;20090;-91
2022/04/29 13:37:19;;;;;;;5.60;2.83;;;10.90;99.90;;;;;;6168644;23;20023;-93
2022/04/29 13:39:46;;;;;;;8.68;3.58;;;10.90;99.90;;;;;;6165740;23;20019;-90
2022/04/29 13:42:13;;;;;;;6.63;3.30;;;10.80;99.90;;;;;;6191164;23;20039;-91
2022/04/29 13:44:40;;;;;;;8.88;3.20;;;10.80;99.90;;;;;;6191304;23;20021;-91
2022/04/29 13:47:06;;;;;;;5.22;3.13;;;10.70;99.90;;;;;;6166371;23;20353;-89
2022/04/29 13:49:32;;;;;;;6.18;3.80;;;10.60;99.90;;;;;;6190966;23;20021;-91
2022/04/29 13:53:07;;;;;;;8.20;3.90;;;10.50;99.90;;;;;;6190446;23;20013;-88
2022/04/29 13:54:43;;;;;;;6.72;3.30;;;10.50;99.90;;;;;;6189966;23;20501;-91
2022/04/29 13:57:09;;;;;;;11.90;4.23;;;10.40;99.90;;;;;;6189536;23;20024;-86
2022/04/29 13:59:35;;;;;;;7.47;4.20;;;10.40;99.90;;;;;;6190139;23;20013;-92
2022/04/29 14:02:00;;;;;;;6.63;3.67;;;10.40;99.90;;;;;;6190067;23;20410;-94
2022/04/29 14:04:26;;;;;;;9.67;4.30;;;10.30;99.90;;;;;;6164887;23;20020;-90
2022/04/29 14:06:52;;;;;;;8.68;5.07;;;10.20;99.90;;;;;;6164939;23;20074;-89
2022/04/29 14:09:18;;;;;;;13.30;6.33;;;10.20;99.90;;;;;;6191140;23;20032;-92
2022/04/29 14:11:43;;;;;;;8.90;5.23;;;10.20;99.90;;;;;;6166035;23;20017;-90
2022/04/29 14:14:12;;;;;;;9.03;5.30;;;10.10;99.90;;;;;;6190101;23;20450;-92
2022/04/29 14:16:37;;;;;;;12.23;4.95;;;10.10;99.90;;;;;;6167720;23;20024;-89
2022/04/29 14:19:03;;;;;;;12.60;6.30;;;10.10;99.90;;;;;;6165413;23;20020;-90